Armstrong, Florida
Current Conditions -  °F | °C
As of 6:58 AM on Sunday 25 Jan 2015 (Local Time) from KSGJ Reporting Station
Clear Clear  
Wind Chill: 34°   Ceiling: Unl
Heat Index: 38°   Visibility: 10mi
Dew Point: 35°   Wind: 5mph
Humidity: 89%   Direction: 310°NW
Pressure: 30.08"   Gusts: NA
Location:  29.7919°N, 81.4499°W
Report Text: KSGJ 251158Z 31004KT 10SM CLR 03/02 A3008 RMK AO2 SLP186 T00330017 10067 20033 51017
Loading
Personal Weather Stations






























Interactive Weather Map New forecast layout! Learn more

10-Day Weather Forecast

Advertisements
Track Severe Weather on mobile